Terminal Aerodrome Forecast
Issued by NWS

Home | Current Version | Previous Version | Text Only | Print | Product List | Glossary On
Versions: 1 2 3 4 5 6 7 8 9 10 11 12 13 14 15 16 17 18 19 20 21 22 23 24 25 26 27 28 29
000
FTPQ31 PGUM 020937 AAA
TAFGUM
TAF AMD

TAF AMD
PGSN 020937Z 0210/0306 36030G45KT 5SM RA VCTS SCT014CB BKN030
      OVC080
      TEMPO 0210/0213 2SM +TSRA BKN012CB OVC030
     FM021400 30045G65KT 3SM RA VCTS SCT012CB BKN020 OVC060
      TEMPO 0214/0218 1SM +TSRA BKN010CB OVC020
     FM021800 25030G45KT 5SM -RA SCT014 BKN040 OVC080=

USA.gov is the U.S. government's official web portal to all federal, state and local government web resources and services.